Time;durP1;ratioP1;P1;durP2;ratioP2;P2;SDS_P1;SDS_P2;PMS_P1;PMS_P2;Temp;Humidity;BMP_temperature;BMP_pressure;BME280_temperature;BME280_humidity;BME280_pressure;Samples;Min_cycle;Max_cycle;Signal;HPM_P1;HPM_P2
2021/11/03 00:00:50;;;;;;;3.85;2.45;;;;;;;;;;5035734;28;20403;-61
2021/11/03 00:03:15;;;;;;;3.03;2.08;;;;;;;;;;5036243;28;20073;-61
2021/11/03 00:05:45;;;;;;;3.25;2.47;;;;;;;;;;5035856;28;20499;-61
2021/11/03 00:08:11;;;;;;;3.78;1.75;;;;;;;;;;5036126;28;20457;-61
2021/11/03 00:10:37;;;;;;;3.58;2.25;;;;;;;;;;5036020;28;20404;-60
2021/11/03 00:13:02;;;;;;;4.18;2.42;;;;;;;;;;5035921;28;20030;-61
2021/11/03 00:15:27;;;;;;;3.38;2.03;;;;;;;;;;5035920;28;20025;-61
2021/11/03 00:17:53;;;;;;;3.80;2.67;;;;;;;;;;5035643;28;20021;-61
2021/11/03 00:20:18;;;;;;;2.90;2.20;;;;;;;;;;5035883;28;20072;-61
2021/11/03 00:22:43;;;;;;;4.15;2.75;;;;;;;;;;5035462;28;20029;-61
2021/11/03 00:25:09;;;;;;;3.35;2.50;;;;;;;;;;5035683;28;20018;-61
2021/11/03 00:27:34;;;;;;;3.60;2.08;;;;;;;;;;5035501;28;20028;-61
2021/11/03 00:29:59;;;;;;;3.43;2.50;;;;;;;;;;5035523;28;20059;-61
2021/11/03 00:32:24;;;;;;;2.92;2.28;;;;;;;;;;5035609;28;20702;-61
2021/11/03 00:34:50;;;;;;;2.72;2.22;;;;;;;;;;5035475;28;20017;-61
2021/11/03 00:37:15;;;;;;;4.07;2.30;;;;;;;;;;5035627;28;20017;-61
2021/11/03 00:39:41;;;;;;;3.72;2.30;;;;;;;;;;5035118;28;20758;-61
2021/11/03 00:42:06;;;;;;;5.88;2.63;;;;;;;;;;5035345;28;20053;-61
2021/11/03 00:44:31;;;;;;;2.15;1.80;;;;;;;;;;5035427;28;20520;-61
2021/11/03 00:46:57;;;;;;;3.93;2.10;;;;;;;;;;5033995;28;20079;-61
2021/11/03 00:49:22;;;;;;;3.20;2.00;;;;;;;;;;5035367;28;20294;-61
2021/11/03 00:51:47;;;;;;;3.25;2.10;;;;;;;;;;5035188;28;20093;-61
2021/11/03 00:54:13;;;;;;;2.42;2.20;;;;;;;;;;5035226;28;20460;-61
2021/11/03 00:56:38;;;;;;;4.80;2.47;;;;;;;;;;5035190;28;20465;-61
2021/11/03 00:59:04;;;;;;;4.97;2.17;;;;;;;;;;5035060;28;20018;-61
2021/11/03 01:01:29;;;;;;;2.58;2.20;;;;;;;;;;5035067;28;20092;-61
2021/11/03 01:03:55;;;;;;;3.88;1.92;;;;;;;;;;5034805;28;20068;-61
2021/11/03 01:06:20;;;;;;;4.97;2.20;;;;;;;;;;5034912;28;20548;-61
2021/11/03 01:08:45;;;;;;;2.17;1.97;;;;;;;;;;5034797;28;20013;-61
2021/11/03 01:11:11;;;;;;;2.57;1.80;;;;;;;;;;5034868;28;20698;-61
2021/11/03 01:13:36;;;;;;;2.20;2.00;;;;;;;;;;5034750;28;20282;-61
2021/11/03 01:16:02;;;;;;;3.47;1.90;;;;;;;;;;5034835;28;20075;-61
2021/11/03 01:18:28;;;;;;;3.53;2.05;;;;;;;;;;5033474;28;20017;-61
2021/11/03 01:20:54;;;;;;;3.45;2.28;;;;;;;;;;5033322;28;20021;-60
2021/11/03 01:23:20;;;;;;;3.13;1.75;;;;;;;;;;5034374;28;20024;-61
2021/11/03 01:25:46;;;;;;;4.60;2.35;;;;;;;;;;5033236;28;20013;-60
2021/11/03 01:28:11;;;;;;;2.53;2.17;;;;;;;;;;5034318;28;20064;-61
2021/11/03 01:30:36;;;;;;;3.17;2.30;;;;;;;;;;5034521;28;20096;-61
2021/11/03 01:33:02;;;;;;;3.35;2.17;;;;;;;;;;5034060;28;20079;-61
2021/11/03 01:35:28;;;;;;;3.03;2.08;;;;;;;;;;5034556;28;20016;-61
2021/11/03 01:37:53;;;;;;;3.10;2.38;;;;;;;;;;5034252;28;20096;-60
2021/11/03 01:40:21;;;;;;;2.63;2.08;;;;;;;;;;5034201;28;20037;-61
2021/11/03 01:42:46;;;;;;;3.17;2.20;;;;;;;;;;5034210;28;20466;-61
2021/11/03 01:45:13;;;;;;;2.78;1.67;;;;;;;;;;5034349;28;20030;-61
2021/11/03 01:47:53;;;;;;;3.08;1.75;;;;;;;;;;5033883;28;20025;-61
2021/11/03 01:50:24;;;;;;;4.85;2.78;;;;;;;;;;5033665;28;20040;-61
2021/11/03 01:53:12;;;;;;;2.85;2.05;;;;;;;;;;5033979;28;20021;-61
2021/11/03 01:55:39;;;;;;;2.17;1.95;;;;;;;;;;5023272;28;20025;-60
2021/11/03 01:58:11;;;;;;;3.22;1.98;;;;;;;;;;5033959;28;20025;-61
2021/11/03 02:00:37;;;;;;;2.97;1.98;;;;;;;;;;5033931;28;20104;-61
2021/11/03 02:03:07;;;;;;;4.45;2.50;;;;;;;;;;5033447;28;20069;-61
2021/11/03 02:05:32;;;;;;;2.40;2.05;;;;;;;;;;5033686;28;20284;-61
2021/11/03 02:07:59;;;;;;;2.47;2.15;;;;;;;;;;5033835;28;20026;-61
2021/11/03 02:10:24;;;;;;;2.15;1.73;;;;;;;;;;5033743;28;20368;-60
2021/11/03 02:12:49;;;;;;;2.92;1.80;;;;;;;;;;5033615;28;20026;-61
2021/11/03 02:15:15;;;;;;;4.32;2.28;;;;;;;;;;5033629;28;20026;-61
2021/11/03 02:17:40;;;;;;;3.60;2.03;;;;;;;;;;5033419;28;20504;-61
2021/11/03 02:20:08;;;;;;;2.17;1.90;;;;;;;;;;5033688;28;20017;-61
2021/11/03 02:22:44;;;;;;;3.15;2.17;;;;;;;;;;5033454;28;20033;-61
2021/11/03 02:25:12;;;;;;;2.60;2.03;;;;;;;;;;5033874;28;20373;-61
2021/11/03 02:27:39;;;;;;;2.40;1.88;;;;;;;;;;5033428;28;20028;-61
2021/11/03 02:30:06;;;;;;;2.25;1.95;;;;;;;;;;5033557;28;20021;-61
2021/11/03 02:32:32;;;;;;;3.10;1.50;;;;;;;;;;5033432;28;20017;-61
2021/11/03 02:34:57;;;;;;;1.95;1.73;;;;;;;;;;5032129;28;20362;-61
2021/11/03 02:37:28;;;;;;;3.40;2.10;;;;;;;;;;5032147;28;20112;-60
2021/11/03 02:39:56;;;;;;;2.30;1.42;;;;;;;;;;5033173;28;20072;-61
2021/11/03 02:42:22;;;;;;;2.47;1.40;;;;;;;;;;5033433;28;20029;-61
2021/11/03 02:44:48;;;;;;;2.17;1.50;;;;;;;;;;5033169;28;20428;-61
2021/11/03 02:47:13;;;;;;;3.38;1.48;;;;;;;;;;5033332;28;20035;-61
2021/11/03 02:49:39;;;;;;;3.38;1.70;;;;;;;;;;5033021;28;20021;-60
2021/11/03 02:52:15;;;;;;;1.58;1.30;;;;;;;;;;5033199;28;20068;-60
2021/11/03 02:54:40;;;;;;;1.67;1.50;;;;;;;;;;5031573;28;20067;-61
2021/11/03 02:57:07;;;;;;;2.08;1.30;;;;;;;;;;5032988;28;20520;-61
2021/11/03 02:59:32;;;;;;;3.05;1.38;;;;;;;;;;5032999;28;20082;-61
2021/11/03 03:01:58;;;;;;;2.10;1.48;;;;;;;;;;5033014;28;20034;-61
2021/11/03 03:04:25;;;;;;;3.13;1.52;;;;;;;;;;5037271;28;20091;-61
2021/11/03 03:06:51;;;;;;;1.80;1.10;;;;;;;;;;5036955;28;20017;-61
2021/11/03 03:09:17;;;;;;;2.10;1.05;;;;;;;;;;5037255;28;20025;-61
2021/11/03 03:11:46;;;;;;;1.98;1.33;;;;;;;;;;5036914;28;20021;-61
2021/11/03 03:14:11;;;;;;;2.95;1.38;;;;;;;;;;5037009;28;20025;-61
2021/11/03 03:16:37;;;;;;;2.88;1.17;;;;;;;;;;5036953;28;20071;-61
2021/11/03 03:19:02;;;;;;;3.25;0.93;;;;;;;;;;5036941;28;20075;-61
2021/11/03 03:21:28;;;;;;;3.63;1.40;;;;;;;;;;5036986;28;20022;-61
2021/11/03 03:23:53;;;;;;;2.45;1.13;;;;;;;;;;5036591;28;20100;-61
2021/11/03 03:26:20;;;;;;;1.85;1.10;;;;;;;;;;5036697;28;20424;-61
2021/11/03 03:28:45;;;;;;;2.92;1.13;;;;;;;;;;5036364;28;20044;-61
2021/11/03 03:31:11;;;;;;;0.90;0.90;;;;;;;;;;5036860;28;20018;-61
2021/11/03 03:33:36;;;;;;;2.63;1.13;;;;;;;;;;5035513;28;20018;-61
2021/11/03 03:36:02;;;;;;;1.15;0.98;;;;;;;;;;5036570;28;20074;-61
2021/11/03 03:38:27;;;;;;;2.95;1.17;;;;;;;;;;5036223;28;20030;-61
2021/11/03 03:40:53;;;;;;;2.00;1.30;;;;;;;;;;5036286;28;20483;-62
2021/11/03 03:43:18;;;;;;;2.25;1.15;;;;;;;;;;5035357;28;20033;-61
2021/11/03 03:45:43;;;;;;;1.35;0.90;;;;;;;;;;5036334;28;20021;-61
2021/11/03 03:48:08;;;;;;;1.48;0.90;;;;;;;;;;5036481;28;20427;-61
2021/11/03 03:50:35;;;;;;;2.65;1.05;;;;;;;;;;5036102;28;20472;-61
2021/11/03 03:53:00;;;;;;;1.42;0.93;;;;;;;;;;5036296;28;20092;-61
2021/11/03 03:55:25;;;;;;;1.63;0.80;;;;;;;;;;5036341;28;20045;-61
2021/11/03 03:57:51;;;;;;;1.60;0.82;;;;;;;;;;5036256;28;20064;-61
2021/11/03 04:00:17;;;;;;;0.60;0.57;;;;;;;;;;5036202;28;20026;-61
2021/11/03 04:02:42;;;;;;;2.90;0.77;;;;;;;;;;5035939;28;20423;-61
2021/11/03 04:05:08;;;;;;;3.40;0.80;;;;;;;;;;5036228;28;20021;-61
2021/11/03 04:07:33;;;;;;;1.40;0.63;;;;;;;;;;5035806;28;20029;-61
2021/11/03 04:09:58;;;;;;;1.85;0.80;;;;;;;;;;5035990;28;20025;-61
2021/11/03 04:12:24;;;;;;;2.05;1.00;;;;;;;;;;5035964;28;20063;-61
2021/11/03 04:14:49;;;;;;;1.60;0.52;;;;;;;;;;5035302;28;20022;-61
2021/11/03 04:17:14;;;;;;;2.13;0.77;;;;;;;;;;5035893;28;20044;-61
2021/11/03 04:19:39;;;;;;;1.77;0.85;;;;;;;;;;5035910;28;20022;-60
2021/11/03 04:22:05;;;;;;;0.93;0.57;;;;;;;;;;5035795;28;20029;-60
2021/11/03 04:24:31;;;;;;;1.20;0.40;;;;;;;;;;5035800;28;20258;-61
2021/11/03 04:26:56;;;;;;;1.73;0.60;;;;;;;;;;5035625;28;20542;-61
2021/11/03 04:29:21;;;;;;;1.00;0.60;;;;;;;;;;5035751;28;20513;-61
2021/11/03 04:31:47;;;;;;;1.45;0.60;;;;;;;;;;5035626;28;20133;-61
2021/11/03 04:34:12;;;;;;;2.38;0.47;;;;;;;;;;5035733;28;20022;-61
2021/11/03 04:36:37;;;;;;;1.50;0.40;;;;;;;;;;5035626;28;20075;-61
2021/11/03 04:39:04;;;;;;;2.58;0.68;;;;;;;;;;5035199;28;20022;-61
2021/11/03 04:41:29;;;;;;;2.58;0.77;;;;;;;;;;5035649;28;20029;-61
2021/11/03 04:43:54;;;;;;;0.93;0.40;;;;;;;;;;5035456;28;20068;-61
2021/11/03 04:46:20;;;;;;;2.00;0.40;;;;;;;;;;5035371;28;20504;-61
2021/11/03 04:48:46;;;;;;;1.13;0.35;;;;;;;;;;5035189;28;20024;-61
2021/11/03 04:51:11;;;;;;;1.05;0.32;;;;;;;;;;5035334;28;20461;-61
2021/11/03 04:53:36;;;;;;;1.48;0.63;;;;;;;;;;5035006;28;20018;-61
2021/11/03 04:56:03;;;;;;;2.45;0.45;;;;;;;;;;5034975;28;20021;-61
2021/11/03 04:58:29;;;;;;;1.65;0.43;;;;;;;;;;5035136;28;20033;-61
2021/11/03 05:00:55;;;;;;;1.70;0.38;;;;;;;;;;5034590;28;20022;-61
2021/11/03 05:03:20;;;;;;;1.33;0.65;;;;;;;;;;5035035;28;20041;-61
2021/11/03 05:05:46;;;;;;;1.15;0.30;;;;;;;;;;5034563;28;20018;-61
2021/11/03 05:08:11;;;;;;;1.55;0.50;;;;;;;;;;5034799;28;20116;-61
2021/11/03 05:10:37;;;;;;;1.85;0.40;;;;;;;;;;5034828;28;20017;-61
2021/11/03 05:13:02;;;;;;;0.40;0.10;;;;;;;;;;5034702;28;20079;-61
2021/11/03 05:15:27;;;;;;;0.70;0.30;;;;;;;;;;5034713;28;20408;-61
2021/11/03 05:17:52;;;;;;;0.40;0.20;;;;;;;;;;5034878;28;20025;-61
2021/11/03 05:20:18;;;;;;;1.17;0.10;;;;;;;;;;5034709;28;20017;-61
2021/11/03 05:22:44;;;;;;;1.10;0.13;;;;;;;;;;5034595;28;20345;-60
2021/11/03 05:25:11;;;;;;;1.55;0.30;;;;;;;;;;5033785;28;20092;-61
2021/11/03 05:27:36;;;;;;;1.33;0.30;;;;;;;;;;5034221;28;20068;-61
2021/11/03 05:30:01;;;;;;;1.10;0.28;;;;;;;;;;5033964;28;20013;-61
2021/11/03 05:32:27;;;;;;;1.30;0.22;;;;;;;;;;5034530;28;20071;-61
2021/11/03 05:34:52;;;;;;;1.15;0.20;;;;;;;;;;5034327;28;20412;-61
2021/11/03 05:37:19;;;;;;;1.13;0.30;;;;;;;;;;5034329;28;20021;-61
2021/11/03 05:39:44;;;;;;;1.02;0.20;;;;;;;;;;5032946;28;20251;-61
2021/11/03 05:42:10;;;;;;;0.68;0.20;;;;;;;;;;5034303;28;20071;-61
2021/11/03 05:44:35;;;;;;;1.13;0.15;;;;;;;;;;5034266;28;20481;-61
2021/11/03 05:47:00;;;;;;;1.23;0.28;;;;;;;;;;5034082;28;20025;-61
2021/11/03 05:49:30;;;;;;;0.93;0.20;;;;;;;;;;5034072;28;20021;-61
2021/11/03 05:51:56;;;;;;;0.85;0.10;;;;;;;;;;5033986;28;20013;-60
2021/11/03 05:54:25;;;;;;;0.63;0.20;;;;;;;;;;5033905;28;20045;-60
2021/11/03 05:56:51;;;;;;;1.42;0.25;;;;;;;;;;5033915;28;20017;-61
2021/11/03 05:59:16;;;;;;;0.30;0.10;;;;;;;;;;5034018;28;20047;-61
2021/11/03 06:01:42;;;;;;;2.47;0.20;;;;;;;;;;5033609;28;20620;-61
2021/11/03 06:04:07;;;;;;;0.87;0.30;;;;;;;;;;5033845;28;20025;-61
2021/11/03 06:06:33;;;;;;;0.75;0.30;;;;;;;;;;5033674;28;20369;-61
2021/11/03 06:08:58;;;;;;;1.55;0.30;;;;;;;;;;5033443;28;20017;-61
2021/11/03 06:11:25;;;;;;;0.30;0.20;;;;;;;;;;5033556;28;20025;-61
2021/11/03 06:13:51;;;;;;;0.38;0.10;;;;;;;;;;5033663;28;20017;-61
2021/11/03 06:16:16;;;;;;;1.40;0.20;;;;;;;;;;5033636;28;20067;-61
2021/11/03 06:18:42;;;;;;;1.58;0.38;;;;;;;;;;5033490;28;20052;-61
2021/11/03 06:21:08;;;;;;;2.67;0.50;;;;;;;;;;5033667;28;20022;-61
2021/11/03 06:23:33;;;;;;;0.90;0.10;;;;;;;;;;5033537;28;20029;-61
2021/11/03 06:25:58;;;;;;;0.82;0.13;;;;;;;;;;5033366;28;20029;-61
2021/11/03 06:28:24;;;;;;;0.35;0.17;;;;;;;;;;5033558;28;20025;-60
2021/11/03 06:30:49;;;;;;;1.15;0.15;;;;;;;;;;5033370;28;20071;-61
2021/11/03 06:33:15;;;;;;;2.25;0.30;;;;;;;;;;5033607;28;20029;-61
2021/11/03 06:35:41;;;;;;;0.50;0.10;;;;;;;;;;5033316;28;20401;-61
2021/11/03 06:38:07;;;;;;;0.57;0.13;;;;;;;;;;5033199;28;20014;-61
2021/11/03 06:40:33;;;;;;;1.58;0.25;;;;;;;;;;5033355;28;20089;-61
2021/11/03 06:42:58;;;;;;;0.63;0.15;;;;;;;;;;5033242;28;20049;-61
2021/11/03 06:45:24;;;;;;;1.33;0.30;;;;;;;;;;5033346;28;20527;-61
2021/11/03 06:47:49;;;;;;;0.65;0.30;;;;;;;;;;5033075;28;20270;-61
2021/11/03 06:50:16;;;;;;;0.98;0.30;;;;;;;;;;5033102;28;20049;-61
2021/11/03 06:52:43;;;;;;;0.75;0.20;;;;;;;;;;5032792;28;20021;-61
2021/11/03 06:55:08;;;;;;;1.20;0.30;;;;;;;;;;5033249;28;20018;-60
2021/11/03 06:57:34;;;;;;;2.65;0.22;;;;;;;;;;5032906;28;20523;-61
2021/11/03 07:00:00;;;;;;;1.05;0.30;;;;;;;;;;5033158;28;20044;-61
2021/11/03 07:02:25;;;;;;;1.75;0.30;;;;;;;;;;5032892;28;20053;-61
2021/11/03 07:04:50;;;;;;;0.17;0.15;;;;;;;;;;5032772;28;20044;-61
2021/11/03 07:07:15;;;;;;;1.30;0.20;;;;;;;;;;5032994;28;20053;-61
2021/11/03 07:09:41;;;;;;;0.70;0.30;;;;;;;;;;5032881;28;20769;-61
2021/11/03 07:12:06;;;;;;;1.45;0.45;;;;;;;;;;5032943;28;20021;-61
2021/11/03 07:14:32;;;;;;;0.98;0.22;;;;;;;;;;5032994;28;20108;-61
2021/11/03 07:16:57;;;;;;;1.23;0.20;;;;;;;;;;5032956;28;20029;-61
2021/11/03 07:19:22;;;;;;;1.42;0.28;;;;;;;;;;5033030;28;20075;-61
2021/11/03 07:21:47;;;;;;;0.85;0.20;;;;;;;;;;5032796;28;20026;-60
2021/11/03 07:24:13;;;;;;;0.88;0.20;;;;;;;;;;5033162;28;20469;-61
2021/11/03 07:26:44;;;;;;;1.80;0.45;;;;;;;;;;5032388;28;20033;-61
2021/11/03 07:29:10;;;;;;;2.10;0.38;;;;;;;;;;5033048;28;20017;-61
2021/11/03 07:31:35;;;;;;;1.58;0.13;;;;;;;;;;5032747;28;20048;-61
2021/11/03 07:34:01;;;;;;;2.53;0.30;;;;;;;;;;5032948;28;20095;-60
2021/11/03 07:36:26;;;;;;;1.63;0.47;;;;;;;;;;5032770;28;20460;-61
2021/11/03 07:38:51;;;;;;;0.90;0.28;;;;;;;;;;5032415;28;20029;-61
2021/11/03 07:41:17;;;;;;;0.90;0.20;;;;;;;;;;5033066;28;20033;-61
2021/11/03 07:43:43;;;;;;;1.10;0.30;;;;;;;;;;5032668;28;20028;-61
2021/11/03 07:46:08;;;;;;;0.63;0.20;;;;;;;;;;5032738;28;20388;-61
2021/11/03 07:48:34;;;;;;;0.95;0.28;;;;;;;;;;5033389;28;20033;-61
2021/11/03 07:51:00;;;;;;;0.47;0.30;;;;;;;;;;5036258;28;20026;-60
2021/11/03 07:53:26;;;;;;;1.27;0.30;;;;;;;;;;5036464;28;20025;-61
2021/11/03 07:55:54;;;;;;;1.25;0.30;;;;;;;;;;5036178;28;20021;-61
2021/11/03 07:58:21;;;;;;;3.67;0.20;;;;;;;;;;5036123;28;20018;-61
2021/11/03 08:00:47;;;;;;;0.90;0.40;;;;;;;;;;5036006;28;20117;-61
2021/11/03 08:03:12;;;;;;;0.60;0.10;;;;;;;;;;5036165;28;20148;-61
2021/11/03 08:05:37;;;;;;;3.28;0.65;;;;;;;;;;5035987;28;20022;-60
2021/11/03 08:08:08;;;;;;;0.73;0.28;;;;;;;;;;5035936;28;20098;-61
2021/11/03 08:10:33;;;;;;;1.10;0.30;;;;;;;;;;5035887;28;20123;-61
2021/11/03 08:12:58;;;;;;;0.70;0.32;;;;;;;;;;5035863;28;20488;-61
2021/11/03 08:15:25;;;;;;;1.95;0.32;;;;;;;;;;5035970;28;20013;-61
2021/11/03 08:17:50;;;;;;;0.43;0.10;;;;;;;;;;5035622;28;20061;-61
2021/11/03 08:20:18;;;;;;;1.05;0.22;;;;;;;;;;5035968;28;20060;-61
2021/11/03 08:22:44;;;;;;;1.20;0.30;;;;;;;;;;5035690;28;20017;-61
2021/11/03 08:25:09;;;;;;;0.85;0.30;;;;;;;;;;5035820;28;20027;-61
2021/11/03 08:27:35;;;;;;;0.80;0.35;;;;;;;;;;5035856;28;20091;-61
2021/11/03 08:30:01;;;;;;;0.95;0.30;;;;;;;;;;5035692;28;20042;-61
2021/11/03 08:32:28;;;;;;;1.92;0.73;;;;;;;;;;5035516;28;20029;-61
2021/11/03 08:34:54;;;;;;;2.15;0.47;;;;;;;;;;5035539;28;20025;-61
2021/11/03 08:37:21;;;;;;;2.55;0.47;;;;;;;;;;5035593;28;20028;-61
2021/11/03 08:39:49;;;;;;;2.03;0.45;;;;;;;;;;5015686;28;20030;-61
2021/11/03 08:42:14;;;;;;;0.90;0.20;;;;;;;;;;5015762;28;20465;-61
2021/11/03 08:44:40;;;;;;;1.25;0.40;;;;;;;;;;5015406;28;20029;-60
2021/11/03 08:47:06;;;;;;;5.20;0.85;;;;;;;;;;5015575;28;20022;-61
2021/11/03 08:49:32;;;;;;;2.67;0.40;;;;;;;;;;5015717;28;20457;-61
2021/11/03 08:51:57;;;;;;;1.77;0.40;;;;;;;;;;5015470;28;20024;-62
2021/11/03 08:54:22;;;;;;;2.35;0.52;;;;;;;;;;5015442;28;20415;-61
2021/11/03 08:56:48;;;;;;;1.00;0.40;;;;;;;;;;5014956;28;20025;-61
2021/11/03 08:59:13;;;;;;;0.73;0.22;;;;;;;;;;5015337;28;20030;-61
2021/11/03 09:01:39;;;;;;;1.10;0.22;;;;;;;;;;5014916;28;20051;-61
2021/11/03 09:04:04;;;;;;;1.45;0.47;;;;;;;;;;5015301;28;20026;-61
2021/11/03 09:06:29;;;;;;;0.95;0.35;;;;;;;;;;5014974;28;20034;-61
2021/11/03 09:08:55;;;;;;;0.73;0.30;;;;;;;;;;5015084;28;20010;-61
2021/11/03 09:11:21;;;;;;;2.17;0.52;;;;;;;;;;5015091;28;20022;-60
2021/11/03 09:13:46;;;;;;;0.40;0.30;;;;;;;;;;5014845;28;20021;-61
2021/11/03 09:16:12;;;;;;;1.35;0.40;;;;;;;;;;5014998;28;20030;-61
2021/11/03 09:18:37;;;;;;;4.75;0.40;;;;;;;;;;5014910;28;20080;-61
2021/11/03 09:21:04;;;;;;;0.88;0.32;;;;;;;;;;5014898;28;20079;-61
2021/11/03 09:23:30;;;;;;;1.48;0.47;;;;;;;;;;5015027;28;20053;-61
2021/11/03 09:25:56;;;;;;;1.52;0.40;;;;;;;;;;5013758;28;20025;-61
2021/11/03 09:28:23;;;;;;;1.10;0.30;;;;;;;;;;5014853;28;20022;-61
2021/11/03 09:30:49;;;;;;;1.08;0.32;;;;;;;;;;5025732;28;20013;-61
2021/11/03 09:33:14;;;;;;;1.05;0.47;;;;;;;;;;5034474;28;20032;-61
2021/11/03 09:35:41;;;;;;;1.23;0.30;;;;;;;;;;5034234;28;20018;-61
2021/11/03 09:38:08;;;;;;;0.80;0.38;;;;;;;;;;5034443;28;20483;-61
2021/11/03 09:40:36;;;;;;;1.63;0.63;;;;;;;;;;5034310;28;20037;-61
2021/11/03 09:43:03;;;;;;;0.57;0.40;;;;;;;;;;5034045;28;20031;-61
2021/11/03 09:45:30;;;;;;;1.95;0.40;;;;;;;;;;5034064;28;20028;-61
2021/11/03 09:48:02;;;;;;;1.17;0.30;;;;;;;;;;5034126;28;20026;-61
2021/11/03 09:50:28;;;;;;;1.02;0.30;;;;;;;;;;5034303;28;20039;-61
2021/11/03 09:52:58;;;;;;;0.40;0.30;;;;;;;;;;5033882;28;20104;-61
2021/11/03 09:55:28;;;;;;;0.50;0.40;;;;;;;;;;5034323;28;20022;-61
2021/11/03 09:58:03;;;;;;;0.68;0.20;;;;;;;;;;5033928;28;20030;-63
2021/11/03 10:01:03;;;;;;;2.28;0.80;;;;;;;;;;5034216;28;20396;-61
2021/11/03 10:03:34;;;;;;;1.95;0.50;;;;;;;;;;4953467;29;20154;-61
2021/11/03 10:06:21;;;;;;;0.35;0.20;;;;;;;;;;4953381;29;20122;-62
2021/11/03 10:08:48;;;;;;;0.77;0.20;;;;;;;;;;4953403;29;20023;-61
2021/11/03 10:11:25;;;;;;;1.02;0.22;;;;;;;;;;4953064;28;20528;-61
2021/11/03 10:13:52;;;;;;;0.52;0.30;;;;;;;;;;4953313;29;20059;-61
2021/11/03 10:16:17;;;;;;;1.25;0.40;;;;;;;;;;4953498;29;20109;-61
2021/11/03 10:18:57;;;;;;;3.50;0.40;;;;;;;;;;4953254;29;20535;-61
2021/11/03 10:21:28;;;;;;;0.82;0.30;;;;;;;;;;4953586;29;20257;-61
2021/11/03 10:23:56;;;;;;;1.42;0.40;;;;;;;;;;4953347;29;20213;-61
2021/11/03 10:26:22;;;;;;;1.55;0.30;;;;;;;;;;4953314;29;20518;-61
2021/11/03 10:28:51;;;;;;;0.52;0.38;;;;;;;;;;4953290;29;20058;-61
2021/11/03 10:31:27;;;;;;;2.15;0.60;;;;;;;;;;4953445;29;20020;-60
2021/11/03 10:34:00;;;;;;;1.88;0.60;;;;;;;;;;4953085;29;20031;-61
2021/11/03 10:36:35;;;;;;;1.23;0.55;;;;;;;;;;4953126;29;20102;-61
2021/11/03 10:39:06;;;;;;;1.67;0.52;;;;;;;;;;4992291;28;20425;-61
2021/11/03 10:41:33;;;;;;;1.70;0.40;;;;;;;;;;5033311;28;20021;-61
2021/11/03 10:44:20;;;;;;;1.65;0.40;;;;;;;;;;5033304;28;20018;-61
2021/11/03 10:47:08;;;;;;;1.75;0.45;;;;;;;;;;5032962;28;20108;-61
2021/11/03 10:49:51;;;;;;;1.77;0.40;;;;;;;;;;5025282;28;20120;-61
2021/11/03 10:52:22;;;;;;;1.13;0.25;;;;;;;;;;5033272;28;20368;-61
2021/11/03 10:54:50;;;;;;;1.52;0.60;;;;;;;;;;5033070;28;20074;-61
2021/11/03 10:57:21;;;;;;;2.95;1.38;;;;;;;;;;5033174;28;20018;-61
2021/11/03 10:59:53;;;;;;;0.90;0.30;;;;;;;;;;5032852;28;20052;-61
2021/11/03 11:02:22;;;;;;;1.15;0.30;;;;;;;;;;5032968;28;20452;-61
2021/11/03 11:04:47;;;;;;;3.47;0.40;;;;;;;;;;5032884;28;20029;-61
2021/11/03 11:07:31;;;;;;;1.80;0.40;;;;;;;;;;5033003;28;20071;-61
2021/11/03 11:10:03;;;;;;;1.87;0.40;;;;;;;;;;5033109;28;20100;-62
2021/11/03 11:12:31;;;;;;;1.02;0.60;;;;;;;;;;5032797;28;20018;-61
2021/11/03 11:14:58;;;;;;;0.85;0.30;;;;;;;;;;5032986;28;20029;-61
2021/11/03 11:17:23;;;;;;;2.33;0.32;;;;;;;;;;5033244;28;20499;-61
2021/11/03 11:20:07;;;;;;;0.45;0.30;;;;;;;;;;5032879;28;20017;-61
2021/11/03 11:22:33;;;;;;;0.98;0.28;;;;;;;;;;5032573;28;20018;-62
2021/11/03 11:25:03;;;;;;;2.00;0.40;;;;;;;;;;5036386;28;20471;-61
2021/11/03 11:27:48;;;;;;;1.33;0.57;;;;;;;;;;5036885;28;20061;-61
2021/11/03 11:30:15;;;;;;;2.15;0.60;;;;;;;;;;5036244;28;20048;-61
2021/11/03 11:32:59;;;;;;;2.67;1.10;;;;;;;;;;5036673;28;20018;-61
2021/11/03 11:35:43;;;;;;;0.65;0.35;;;;;;;;;;5036919;28;20025;-61
2021/11/03 11:38:27;;;;;;;1.10;0.50;;;;;;;;;;5036646;28;20041;-61
2021/11/03 11:40:55;;;;;;;1.57;0.60;;;;;;;;;;5036396;28;20025;-61
2021/11/03 11:43:32;;;;;;;1.48;0.50;;;;;;;;;;5036499;28;20259;-61
2021/11/03 11:45:59;;;;;;;1.83;0.32;;;;;;;;;;5036473;28;20527;-61
2021/11/03 11:48:31;;;;;;;1.00;0.20;;;;;;;;;;5036572;28;20112;-61
2021/11/03 11:51:15;;;;;;;0.30;0.20;;;;;;;;;;5036193;28;20037;-61
2021/11/03 11:54:02;;;;;;;2.25;0.50;;;;;;;;;;5036318;28;20063;-61
2021/11/03 11:56:37;;;;;;;0.20;0.20;;;;;;;;;;5036420;28;20025;-61
2021/11/03 11:59:11;;;;;;;0.88;0.30;;;;;;;;;;5036226;28;20032;-62
2021/11/03 12:01:36;;;;;;;;;;;;;;;;;;5036758;28;20022;-61
2021/11/03 12:04:02;;;;;;;0.47;0.23;;;;;;;;;;5036049;28;19917;-61
2021/11/03 12:06:46;;;;;;;0.50;0.20;;;;;;;;;;5036114;28;20125;-61
2021/11/03 12:09:23;;;;;;;0.85;0.25;;;;;;;;;;5036203;28;20025;-61
2021/11/03 12:11:57;;;;;;;1.35;0.73;;;;;;;;;;5035626;28;20453;-61
2021/11/03 12:14:29;;;;;;;2.80;0.20;;;;;;;;;;5036384;28;20453;-61
2021/11/03 12:16:56;;;;;;;2.13;0.50;;;;;;;;;;5035658;28;20112;-61
2021/11/03 12:19:36;;;;;;;1.05;0.28;;;;;;;;;;5036117;28;20022;-61
2021/11/03 12:22:06;;;;;;;0.75;0.30;;;;;;;;;;5035923;28;20017;-61
2021/11/03 12:24:39;;;;;;;0.60;0.40;;;;;;;;;;5035840;28;20129;-61
2021/11/03 12:27:13;;;;;;;1.33;0.50;;;;;;;;;;5035690;28;20018;-61
2021/11/03 12:29:40;;;;;;;0.73;0.30;;;;;;;;;;5035717;28;20072;-60
2021/11/03 12:32:20;;;;;;;2.05;0.63;;;;;;;;;;5035761;28;20053;-61
2021/11/03 12:34:45;;;;;;;1.23;0.30;;;;;;;;;;5035064;28;20021;-61
2021/11/03 12:37:11;;;;;;;1.90;0.40;;;;;;;;;;5035677;28;20449;-61
2021/11/03 12:39:42;;;;;;;1.02;0.50;;;;;;;;;;5035507;28;20060;-61
2021/11/03 12:42:10;;;;;;;1.00;0.40;;;;;;;;;;5035501;28;20029;-61
2021/11/03 12:44:38;;;;;;;1.65;0.40;;;;;;;;;;5035452;28;20030;-60
2021/11/03 12:47:15;;;;;;;1.35;0.55;;;;;;;;;;5035362;28;20463;-61
2021/11/03 12:49:40;;;;;;;0.75;0.30;;;;;;;;;;5035254;28;20022;-61
2021/11/03 12:52:09;;;;;;;2.13;0.40;;;;;;;;;;5035276;28;20063;-60
2021/11/03 12:54:35;;;;;;;1.10;0.30;;;;;;;;;;5035118;28;20060;-61
2021/11/03 12:57:05;;;;;;;2.42;0.75;;;;;;;;;;5035179;28;20017;-61
2021/11/03 12:59:36;;;;;;;0.80;0.38;;;;;;;;;;5035088;28;20022;-61
2021/11/03 13:02:03;;;;;;;0.90;0.30;;;;;;;;;;5035044;28;20066;-61
2021/11/03 13:04:30;;;;;;;0.52;0.30;;;;;;;;;;5034828;28;20481;-61
2021/11/03 13:06:58;;;;;;;0.77;0.30;;;;;;;;;;5034959;28;20771;-61
2021/11/03 13:09:29;;;;;;;0.95;0.40;;;;;;;;;;5035106;28;20057;-61
2021/11/03 13:11:54;;;;;;;2.20;0.60;;;;;;;;;;5034795;28;20479;-61
2021/11/03 13:14:24;;;;;;;0.50;0.30;;;;;;;;;;5034724;28;20052;-61
2021/11/03 13:16:50;;;;;;;0.30;0.20;;;;;;;;;;5034711;28;20028;-62
2021/11/03 13:19:17;;;;;;;2.45;0.40;;;;;;;;;;5034689;28;20048;-61
2021/11/03 13:21:43;;;;;;;0.75;0.40;;;;;;;;;;5034614;28;20029;-61
2021/11/03 13:24:14;;;;;;;1.10;0.20;;;;;;;;;;5034789;28;20469;-61
2021/11/03 13:26:40;;;;;;;1.75;0.40;;;;;;;;;;5034551;28;20378;-60
2021/11/03 13:29:06;;;;;;;0.80;0.28;;;;;;;;;;5034393;28;20021;-61
2021/11/03 13:31:31;;;;;;;0.50;0.30;;;;;;;;;;5034646;28;20105;-61
2021/11/03 13:34:18;;;;;;;0.40;0.20;;;;;;;;;;5033972;28;20100;-61
2021/11/03 13:37:00;;;;;;;0.93;0.40;;;;;;;;;;5033370;28;20358;-61
2021/11/03 13:39:28;;;;;;;1.90;0.57;;;;;;;;;;5046199;28;20025;-61
2021/11/03 13:41:55;;;;;;;0.28;0.22;;;;;;;;;;5044023;28;20487;-61
2021/11/03 13:44:26;;;;;;;1.55;0.35;;;;;;;;;;5046294;28;20052;-61
2021/11/03 13:46:53;;;;;;;1.48;0.50;;;;;;;;;;5042913;28;20029;-61
2021/11/03 13:49:20;;;;;;;0.57;0.20;;;;;;;;;;5039493;28;20021;-61
2021/11/03 13:51:47;;;;;;;1.83;0.47;;;;;;;;;;5050583;28;20028;-61
2021/11/03 13:54:19;;;;;;;1.33;0.47;;;;;;;;;;5044940;28;20024;-61
2021/11/03 13:56:47;;;;;;;1.27;0.50;;;;;;;;;;5032750;28;20521;-61
2021/11/03 13:59:27;;;;;;;3.42;1.05;;;;;;;;;;5034140;28;20129;-61
2021/11/03 14:02:13;;;;;;;0.80;0.30;;;;;;;;;;5045477;28;20092;-61
2021/11/03 14:04:46;;;;;;;1.08;0.30;;;;;;;;;;5015936;28;21658;-61
2021/11/03 14:07:14;;;;;;;1.38;0.70;;;;;;;;;;5033201;28;20380;-60
2021/11/03 14:09:39;;;;;;;0.57;0.28;;;;;;;;;;5032579;28;20097;-61
2021/11/03 14:12:05;;;;;;;0.98;0.30;;;;;;;;;;5043258;28;20088;-62
2021/11/03 14:14:30;;;;;;;0.40;0.20;;;;;;;;;;5053108;28;20037;-61
2021/11/03 14:17:05;;;;;;;2.35;0.52;;;;;;;;;;5037334;28;20030;-61
2021/11/03 14:19:35;;;;;;;2.03;0.50;;;;;;;;;;5027453;28;20030;-61
2021/11/03 14:22:01;;;;;;;0.75;0.25;;;;;;;;;;5033733;28;20076;-61
2021/11/03 14:24:27;;;;;;;0.75;0.30;;;;;;;;;;5033560;28;20045;-61
2021/11/03 14:26:53;;;;;;;0.68;0.30;;;;;;;;;;5033165;28;20029;-61
2021/11/03 14:29:19;;;;;;;1.58;0.70;;;;;;;;;;5032643;28;20021;-61
2021/11/03 14:31:45;;;;;;;1.23;0.40;;;;;;;;;;5033863;28;20380;-61
2021/11/03 14:34:15;;;;;;;0.65;0.30;;;;;;;;;;5037688;28;20408;-61
2021/11/03 14:36:40;;;;;;;1.70;0.30;;;;;;;;;;5031132;28;20025;-61
2021/11/03 14:39:05;;;;;;;1.15;0.20;;;;;;;;;;5032859;28;20445;-61
2021/11/03 14:41:31;;;;;;;1.38;0.43;;;;;;;;;;5032926;28;20021;-61
2021/11/03 14:44:00;;;;;;;0.70;0.30;;;;;;;;;;5034488;28;20548;-61
2021/11/03 14:46:28;;;;;;;0.95;0.10;;;;;;;;;;5032711;28;20032;-61